createdAt,value
2022-09-06T00:00:15.097Z,101453.18
2022-09-06T00:03:30.553Z,101437.86
2022-09-06T00:06:33.178Z,101437.46
2022-09-06T00:09:35.875Z,101439.77
2022-09-06T00:12:38.437Z,101451.50
2022-09-06T00:15:41.155Z,101445.66
2022-09-06T00:18:44.333Z,101449.41
2022-09-06T00:21:46.868Z,101442.70
2022-09-06T00:24:49.508Z,101439.34
2022-09-06T00:27:55.117Z,101431.80
2022-09-06T00:30:57.746Z,101443.97
2022-09-06T00:34:00.384Z,101441.84
2022-09-06T00:37:03.183Z,101438.52
2022-09-06T00:40:07.302Z,101442.91
2022-09-06T00:43:09.972Z,101430.73
2022-09-06T00:46:15.440Z,101431.38
2022-09-06T00:49:23.798Z,101426.95
2022-09-06T00:52:27.083Z,101434.92
2022-09-06T00:55:29.614Z,101428.41
2022-09-06T00:58:32.328Z,101433.23
2022-09-06T01:01:35.347Z,101430.50
2022-09-06T01:04:38.929Z,101425.05
2022-09-06T01:07:51.326Z,101438.28
2022-09-06T01:11:14.789Z,101430.50
2022-09-06T01:14:22.025Z,101421.48
2022-09-06T01:17:32.412Z,101413.52
2022-09-06T01:20:45.305Z,101422.95
2022-09-06T01:24:08.480Z,101422.72
2022-09-06T01:27:34.604Z,101407.42
2022-09-06T01:30:41.534Z,101418.28
2022-09-06T01:33:48.406Z,101414.28
2022-09-06T01:37:08.959Z,101409.42
2022-09-06T01:40:12.834Z,101411.11
2022-09-06T01:43:20.412Z,101419.04
2022-09-06T01:46:27.397Z,101411.29
2022-09-06T01:49:41.706Z,101410.02
2022-09-06T01:52:50.311Z,101407.49
2022-09-06T01:55:58.102Z,101406.02
2022-09-06T01:59:11.552Z,101394.69
2022-09-06T02:02:19.020Z,101403.48
2022-09-06T02:05:26.011Z,101406.18
2022-09-06T02:08:31.057Z,101404.46
2022-09-06T02:11:37.806Z,101397.73
2022-09-06T02:14:43.605Z,101398.36
2022-09-06T02:17:50.218Z,101398.10
2022-09-06T02:20:54.852Z,101390.36
2022-09-06T02:23:59.068Z,101393.69
2022-09-06T02:27:01.800Z,101398.69
2022-09-06T02:30:05.281Z,101399.48
2022-09-06T02:33:10.706Z,101390.23
2022-09-06T02:36:14.029Z,101398.17
2022-09-06T02:39:16.605Z,101407.13
2022-09-06T02:42:19.369Z,101399.58
2022-09-06T02:45:21.897Z,101406.27
2022-09-06T02:48:24.858Z,101396.82
2022-09-06T02:51:27.502Z,101397.20
2022-09-06T02:54:30.711Z,101389.00
2022-09-06T02:57:33.236Z,101390.63
2022-09-06T03:00:36.856Z,101389.56
2022-09-06T03:03:39.525Z,101386.39
2022-09-06T03:06:42.217Z,101392.20
2022-09-06T03:09:44.782Z,101378.83
2022-09-06T03:12:47.621Z,101387.36
2022-09-06T03:15:51.404Z,101391.52
2022-09-06T03:18:53.956Z,101389.20
2022-09-06T03:21:56.627Z,101388.93
2022-09-06T03:24:59.156Z,101384.50
2022-09-06T03:28:02.212Z,101376.48
2022-09-06T03:31:04.943Z,101378.09
2022-09-06T03:34:10.995Z,101384.77
2022-09-06T03:37:13.830Z,101376.13
2022-09-06T03:40:16.455Z,101379.89
2022-09-06T03:43:20.091Z,101380.26
2022-09-06T03:46:22.870Z,101372.89
2022-09-06T03:49:25.435Z,101371.12
2022-09-06T03:52:28.019Z,101366.10
2022-09-06T03:55:30.863Z,101372.36
2022-09-06T03:58:33.462Z,101365.45
2022-09-06T04:01:36.172Z,101364.98
2022-09-06T04:04:38.732Z,101377.08
2022-09-06T04:07:42.449Z,101387.48
2022-09-06T04:10:44.993Z,101377.48
2022-09-06T04:13:48.151Z,101380.38
2022-09-06T04:16:50.729Z,101372.42
2022-09-06T04:19:53.357Z,101375.14
2022-09-06T04:22:55.866Z,101382.45
2022-09-06T04:25:58.985Z,101384.11
2022-09-06T04:29:01.716Z,101382.91
2022-09-06T04:32:04.305Z,101382.70
2022-09-06T04:35:08.370Z,101385.51
2022-09-06T04:38:11.020Z,101374.95
2022-09-06T04:41:15.308Z,101379.67
2022-09-06T04:44:18.418Z,101377.13
2022-09-06T04:47:20.978Z,101388.75
2022-09-06T04:50:23.523Z,101374.42
2022-09-06T04:53:26.175Z,101371.41
2022-09-06T04:56:29.588Z,101377.56
2022-09-06T04:59:32.538Z,101377.44
2022-09-06T05:02:35.117Z,101379.00
2022-09-06T05:05:37.876Z,101372.58
2022-09-06T05:08:41.020Z,101377.88
2022-09-06T05:11:43.747Z,101385.25
2022-09-06T05:14:46.339Z,101378.81
2022-09-06T05:17:49.165Z,101378.00
2022-09-06T05:20:52.551Z,101379.51
2022-09-06T05:23:58.465Z,101387.09
2022-09-06T05:27:03.794Z,101376.42
2022-09-06T05:30:07.415Z,101374.52
2022-09-06T05:33:10.374Z,101368.65
2022-09-06T05:36:12.940Z,101372.01
2022-09-06T05:39:15.479Z,101375.33
2022-09-06T05:42:19.412Z,101382.23
2022-09-06T05:45:22.398Z,101374.18
2022-09-06T05:48:25.214Z,101364.86
2022-09-06T05:51:27.919Z,101363.95
2022-09-06T05:54:30.513Z,101363.47
2022-09-06T05:57:33.142Z,101358.70
2022-09-06T06:00:36.265Z,101358.56
2022-09-06T06:03:38.963Z,101354.45
2022-09-06T06:06:41.617Z,101356.85
2022-09-06T06:09:44.218Z,101355.64
2022-09-06T06:12:46.744Z,101357.66
2022-09-06T06:15:49.492Z,101359.27
2022-09-06T06:18:52.854Z,101352.42
2022-09-06T06:21:57.897Z,101357.60
2022-09-06T06:25:00.439Z,101357.99
2022-09-06T06:28:03.515Z,101351.03
2022-09-06T06:31:06.905Z,101364.64
2022-09-06T06:34:09.506Z,101346.00
2022-09-06T06:37:15.477Z,101348.42
2022-09-06T06:40:25.079Z,101351.91
2022-09-06T06:43:35.615Z,101353.12
2022-09-06T06:46:38.330Z,101339.33
2022-09-06T06:49:40.982Z,101344.27
2022-09-06T06:52:43.595Z,101340.98
2022-09-06T06:55:47.860Z,101335.40
2022-09-06T06:58:52.050Z,101336.73
2022-09-06T07:08:41.000Z,101343.39
2022-09-06T07:11:43.683Z,101334.13
2022-09-06T07:14:46.348Z,101343.92
2022-09-06T07:17:48.920Z,101346.55
2022-09-06T07:24:14.301Z,101352.37
2022-09-06T07:30:39.498Z,101357.38
2022-09-06T07:33:42.068Z,101355.49
2022-09-06T07:36:44.611Z,101363.89
2022-09-06T07:39:47.530Z,101369.98
2022-09-06T07:42:50.271Z,101374.44
2022-09-06T07:46:03.165Z,101363.52
2022-09-06T07:49:06.098Z,101366.83
2022-09-06T07:55:31.215Z,101366.30
2022-09-06T07:58:34.105Z,101355.21
2022-09-06T08:01:37.097Z,101349.25
2022-09-06T08:04:40.534Z,101348.50
2022-09-06T08:07:43.179Z,101354.41
2022-09-06T08:10:50.544Z,101356.71
2022-09-06T08:13:55.028Z,101360.20
2022-09-06T08:16:58.078Z,101350.98
2022-09-06T08:20:00.522Z,101357.11
2022-09-06T08:23:08.934Z,101358.25
2022-09-06T08:26:11.605Z,101352.22
2022-09-06T08:29:14.286Z,101352.25
2022-09-06T08:32:18.789Z,101347.70
2022-09-06T08:35:21.326Z,101346.41
2022-09-06T08:38:24.206Z,101348.15
2022-09-06T08:41:27.557Z,101336.61
2022-09-06T08:47:57.263Z,101341.34
2022-09-06T08:51:03.699Z,101341.91
2022-09-06T08:54:11.046Z,101341.95
2022-09-06T08:57:20.867Z,101340.34
2022-09-06T09:00:23.567Z,101334.86
2022-09-06T09:03:31.055Z,101346.75
2022-09-06T09:06:34.433Z,101334.36
2022-09-06T09:09:37.086Z,101340.77
2022-09-06T09:12:43.986Z,101345.81
2022-09-06T09:15:46.627Z,101340.32
2022-09-06T09:18:51.141Z,101335.95
2022-09-06T09:21:54.229Z,101342.03
2022-09-06T09:24:58.897Z,101334.88
2022-09-06T09:28:02.206Z,101317.21
2022-09-06T09:31:07.166Z,101326.91
2022-09-06T09:34:13.701Z,101335.25
2022-09-06T09:40:49.313Z,101323.81
2022-09-06T09:43:59.194Z,101328.20
2022-09-06T09:47:21.935Z,101326.73
2022-09-06T09:50:27.150Z,101328.22
2022-09-06T09:53:29.734Z,101332.78
2022-09-06T09:56:37.592Z,101322.03
2022-09-06T09:59:42.874Z,101323.75
2022-09-06T10:02:45.526Z,101318.72
2022-09-06T10:06:02.048Z,101331.47
2022-09-06T10:09:29.459Z,101332.42
2022-09-06T10:12:32.874Z,101330.76
2022-09-06T10:15:36.363Z,101328.64
2022-09-06T10:18:40.332Z,101323.31
2022-09-06T10:21:42.909Z,101326.75
2022-09-06T10:24:51.650Z,101331.77
2022-09-06T10:28:12.647Z,101324.02
2022-09-06T10:31:25.624Z,101325.28
2022-09-06T10:34:43.642Z,101312.05
2022-09-06T10:37:50.600Z,101307.52
2022-09-06T10:40:58.312Z,101318.03
2022-09-06T10:44:06.211Z,101316.91
2022-09-06T10:47:10.987Z,101319.66
2022-09-06T10:50:14.399Z,101311.82
2022-09-06T10:53:24.626Z,101294.17
2022-09-06T10:56:31.531Z,101294.39
2022-09-06T10:59:36.595Z,101286.67
2022-09-06T11:02:43.985Z,101291.13
2022-09-06T11:05:49.374Z,101290.20
2022-09-06T11:08:58.100Z,101293.43
2022-09-06T11:12:06.977Z,101292.79
2022-09-06T11:15:11.667Z,101281.61
2022-09-06T11:18:18.176Z,101284.69
2022-09-06T11:21:35.199Z,101285.88
2022-09-06T11:24:47.868Z,101293.45
2022-09-06T11:27:57.305Z,101290.70
2022-09-06T11:31:01.231Z,101286.89
2022-09-06T11:34:06.103Z,101276.82
2022-09-06T11:37:21.506Z,101269.27
2022-09-06T11:40:27.518Z,101278.39
2022-09-06T11:43:45.715Z,101272.69
2022-09-06T11:46:58.840Z,101265.84
2022-09-06T11:50:17.802Z,101252.98
2022-09-06T11:53:21.104Z,101251.86
2022-09-06T11:56:28.254Z,101255.01
2022-09-06T11:59:35.469Z,101243.05
2022-09-06T12:02:41.221Z,101245.41
2022-09-06T12:05:58.753Z,101253.03
2022-09-06T12:09:02.213Z,101247.03
2022-09-06T12:12:05.825Z,101233.83
2022-09-06T12:15:25.797Z,101238.47
2022-09-06T12:18:52.084Z,101240.53
2022-09-06T12:21:54.791Z,101239.16
2022-09-06T12:24:59.183Z,101227.80
2022-09-06T12:28:02.716Z,101222.44
2022-09-06T12:31:23.278Z,101223.45
2022-09-06T12:34:28.447Z,101212.65
2022-09-06T12:37:36.737Z,101216.16
2022-09-06T12:40:40.966Z,101201.75
2022-09-06T12:43:43.768Z,101194.08
2022-09-06T12:46:47.692Z,101203.52
2022-09-06T12:50:04.653Z,101201.11
2022-09-06T12:53:23.392Z,101204.58
2022-09-06T12:56:27.548Z,101194.67
2022-09-06T12:59:31.863Z,101199.59
2022-09-06T13:02:37.284Z,101192.50
2022-09-06T13:05:40.702Z,101189.41
2022-09-06T13:08:47.002Z,101186.84
2022-09-06T13:11:50.770Z,101183.74
2022-09-06T13:14:54.761Z,101176.00
2022-09-06T13:18:11.611Z,101171.56
2022-09-06T13:21:23.820Z,101169.86
2022-09-06T13:24:27.869Z,101165.87
2022-09-06T13:27:35.007Z,101153.08
2022-09-06T13:30:41.237Z,101153.17
2022-09-06T13:33:44.662Z,101156.17
2022-09-06T13:36:49.311Z,101156.59
2022-09-06T13:39:52.382Z,101154.11
2022-09-06T13:43:00.265Z,101148.95
2022-09-06T13:46:06.792Z,101146.69
2022-09-06T13:49:09.355Z,101147.29
2022-09-06T13:52:12.061Z,101146.98
2022-09-06T13:55:16.016Z,101144.40
2022-09-06T13:58:18.652Z,101143.88
2022-09-06T14:01:21.330Z,101138.18
2022-09-06T14:04:24.871Z,101141.89
2022-09-06T14:07:27.586Z,101132.42
2022-09-06T14:10:30.166Z,101132.83
2022-09-06T14:13:32.735Z,101132.55
2022-09-06T14:16:35.525Z,101126.05
2022-09-06T14:19:39.967Z,101116.97
2022-09-06T14:22:42.582Z,101118.41
2022-09-06T14:25:45.117Z,101120.42
2022-09-06T14:28:47.847Z,101113.72
2022-09-06T14:31:50.419Z,101110.94
2022-09-06T14:34:53.054Z,101109.38
2022-09-06T14:37:55.609Z,101107.11
2022-09-06T14:41:03.276Z,101093.49
2022-09-06T14:44:05.855Z,101092.34
2022-09-06T14:47:08.465Z,101085.36
2022-09-06T14:50:11.274Z,101088.00
2022-09-06T14:53:38.802Z,101092.53
2022-09-06T14:56:39.972Z,101086.21
2022-09-06T14:59:42.622Z,101076.38
2022-09-06T15:02:45.296Z,101077.06
2022-09-06T15:05:48.395Z,101069.94
2022-09-06T15:08:52.839Z,101073.41
2022-09-06T15:11:58.403Z,101063.72
2022-09-06T15:15:02.262Z,101065.46
2022-09-06T15:18:04.991Z,101065.98
2022-09-06T15:21:11.123Z,101065.13
2022-09-06T15:24:14.097Z,101058.75
2022-09-06T15:27:16.795Z,101060.81
2022-09-06T15:30:19.409Z,101055.41
2022-09-06T15:33:22.078Z,101055.57
2022-09-06T15:36:24.872Z,101048.73
2022-09-06T15:39:27.566Z,101048.55
2022-09-06T15:42:30.346Z,101046.36
2022-09-06T15:45:46.653Z,101042.62
2022-09-06T15:48:50.509Z,101042.52
2022-09-06T15:51:53.479Z,101035.76
2022-09-06T15:55:14.898Z,101029.80
2022-09-06T15:58:17.704Z,101030.63
2022-09-06T16:01:21.161Z,101035.20
2022-09-06T16:04:23.891Z,101027.34
2022-09-06T16:07:27.090Z,101030.22
2022-09-06T16:10:29.779Z,101016.17
2022-09-06T16:13:33.260Z,101019.58
2022-09-06T16:16:36.616Z,101014.95
2022-09-06T16:19:39.642Z,101018.09
2022-09-06T16:22:42.224Z,101017.62
2022-09-06T16:25:47.371Z,101007.74
2022-09-06T16:28:51.122Z,101011.41
2022-09-06T16:31:59.041Z,101005.41
2022-09-06T16:35:03.258Z,101009.12
2022-09-06T16:38:09.089Z,101002.87
2022-09-06T16:41:13.765Z,101009.02
2022-09-06T16:44:17.540Z,100999.37
2022-09-06T16:47:20.372Z,100995.01
2022-09-06T16:50:22.953Z,100995.63
2022-09-06T16:53:25.635Z,100984.60
2022-09-06T16:56:31.188Z,100989.37
2022-09-06T16:59:33.770Z,100985.50
2022-09-06T17:02:36.513Z,100985.81
2022-09-06T17:05:39.434Z,100976.45
2022-09-06T17:08:42.127Z,100973.42
2022-09-06T17:11:45.834Z,100967.06
2022-09-06T17:14:48.670Z,100968.94
2022-09-06T17:17:51.237Z,100955.66
2022-09-06T17:20:57.529Z,100958.09
2022-09-06T17:24:02.422Z,100957.46
2022-09-06T17:27:05.319Z,100953.01
2022-09-06T17:30:09.665Z,100951.84
2022-09-06T17:33:12.870Z,100948.95
2022-09-06T17:36:17.063Z,100956.06
2022-09-06T17:39:20.457Z,100955.12
2022-09-06T17:42:24.144Z,100958.59
2022-09-06T17:45:26.864Z,100961.78
2022-09-06T17:48:30.382Z,100952.61
2022-09-06T17:51:33.601Z,100961.06
2022-09-06T17:54:36.775Z,100956.50
2022-09-06T17:57:39.531Z,100959.73
2022-09-06T18:00:42.218Z,100962.13
2022-09-06T18:03:45.628Z,100955.44
2022-09-06T18:06:48.249Z,100964.41
2022-09-06T18:09:51.164Z,100966.21
2022-09-06T18:12:53.939Z,100969.41
2022-09-06T18:15:56.569Z,100964.94
2022-09-06T18:19:00.201Z,100967.89
2022-09-06T18:22:04.022Z,100971.08
2022-09-06T18:25:08.352Z,100968.53
2022-09-06T18:28:11.050Z,100965.98
2022-09-06T18:31:14.534Z,100975.81
2022-09-06T18:34:17.985Z,100971.91
2022-09-06T18:37:20.702Z,100977.90
2022-09-06T18:40:23.345Z,100980.34
2022-09-06T18:43:28.906Z,100981.05
2022-09-06T18:46:32.561Z,100986.48
2022-09-06T18:49:35.558Z,100994.05
2022-09-06T18:52:38.163Z,100988.73
2022-09-06T18:55:42.086Z,100994.41
2022-09-06T18:58:44.780Z,100992.67
2022-09-06T19:01:47.525Z,100998.09
2022-09-06T19:04:53.550Z,100990.58
2022-09-06T19:07:56.266Z,100990.85
2022-09-06T19:11:00.771Z,100991.34
2022-09-06T19:14:04.171Z,100991.85
2022-09-06T19:17:07.008Z,100985.53
2022-09-06T19:20:10.223Z,100981.94
2022-09-06T19:23:12.819Z,100985.77
2022-09-06T19:26:17.217Z,100986.59
2022-09-06T19:29:19.862Z,100975.61
2022-09-06T19:32:22.487Z,100976.95
2022-09-06T19:35:25.045Z,100971.12
2022-09-06T19:38:27.899Z,100981.76
2022-09-06T19:41:36.032Z,100974.04
2022-09-06T19:44:38.759Z,100978.36
2022-09-06T19:47:41.349Z,100971.94
2022-09-06T19:50:43.992Z,100962.81
2022-09-06T19:53:49.349Z,100957.97
2022-09-06T19:56:52.283Z,100960.29
2022-09-06T19:59:55.004Z,100960.45
2022-09-06T20:02:57.641Z,100952.03
2022-09-06T20:06:01.186Z,100956.44
2022-09-06T20:09:05.749Z,100945.62
2022-09-06T20:12:08.975Z,100937.78
2022-09-06T20:15:11.760Z,100945.92
2022-09-06T20:18:14.685Z,100944.98
2022-09-06T20:21:17.891Z,100941.56
2022-09-06T20:24:20.781Z,100946.69
2022-09-06T20:27:23.490Z,100948.25
2022-09-06T20:30:26.274Z,100953.05
2022-09-06T20:33:29.436Z,100954.02
2022-09-06T20:36:32.537Z,100953.55
2022-09-06T20:39:35.269Z,100940.82
2022-09-06T20:42:41.634Z,100945.11
2022-09-06T20:45:46.217Z,100952.02
2022-09-06T20:48:49.545Z,100951.09
2022-09-06T20:51:52.225Z,100941.42
2022-09-06T20:54:54.935Z,100937.50
2022-09-06T20:57:57.644Z,100935.25
2022-09-06T21:01:05.345Z,100941.78
2022-09-06T21:04:09.120Z,100940.36
2022-09-06T21:07:11.755Z,100938.12
2022-09-06T21:10:14.564Z,100937.98
2022-09-06T21:13:17.389Z,100935.97
2022-09-06T21:16:24.676Z,100945.92
2022-09-06T21:19:27.778Z,100940.57
2022-09-06T21:22:30.512Z,100941.28
2022-09-06T21:25:33.211Z,100944.14
2022-09-06T21:28:37.008Z,100937.70
2022-09-06T21:31:40.298Z,100938.87
2022-09-06T21:34:42.928Z,100928.87
2022-09-06T21:37:45.661Z,100927.93
2022-09-06T21:40:48.374Z,100928.04
2022-09-06T21:43:52.557Z,100924.56
2022-09-06T21:46:56.053Z,100925.87
2022-09-06T21:49:58.819Z,100927.17
2022-09-06T21:53:01.533Z,100922.64
2022-09-06T21:56:04.831Z,100925.48
2022-09-06T21:59:08.030Z,100917.95
2022-09-06T22:02:11.239Z,100932.09
2022-09-06T22:05:14.513Z,100925.42
2022-09-06T22:08:17.745Z,100928.01
2022-09-06T22:11:21.847Z,100926.45
2022-09-06T22:14:24.579Z,100920.61
2022-09-06T22:17:27.282Z,100907.64
2022-09-06T22:20:29.959Z,100912.73
2022-09-06T22:23:33.105Z,100916.98
2022-09-06T22:26:37.031Z,100911.39
2022-09-06T22:29:40.174Z,100907.67
2022-09-06T22:32:42.875Z,100913.83
2022-09-06T22:35:45.424Z,100906.75
2022-09-06T22:38:47.957Z,100898.16
2022-09-06T22:41:50.580Z,100910.39
2022-09-06T22:44:53.458Z,100906.00
2022-09-06T22:47:56.132Z,100903.71
2022-09-06T22:50:58.776Z,100898.73
2022-09-06T22:54:01.828Z,100898.34
2022-09-06T22:57:04.508Z,100895.83
2022-09-06T23:00:08.580Z,100894.39
2022-09-06T23:03:11.585Z,100883.95
2022-09-06T23:06:14.467Z,100885.46
2022-09-06T23:09:17.199Z,100885.91
2022-09-06T23:12:19.884Z,100884.25
2022-09-06T23:15:22.646Z,100882.81
2022-09-06T23:18:25.665Z,100880.52
2022-09-06T23:21:28.224Z,100872.80
2022-09-06T23:24:30.932Z,100877.66
2022-09-06T23:27:33.648Z,100878.31
2022-09-06T23:30:37.324Z,100877.09
2022-09-06T23:33:41.158Z,100880.08
2022-09-06T23:36:44.686Z,100873.40
2022-09-06T23:39:47.491Z,100866.12
2022-09-06T23:42:50.123Z,100867.41
2022-09-06T23:45:52.787Z,100867.02
2022-09-06T23:48:55.355Z,100864.51
2022-09-06T23:51:57.933Z,100862.00
2022-09-06T23:55:00.568Z,100856.79
2022-09-06T23:58:03.148Z,100856.79
